This is the latest recevied weather packets stored in our database for station/object KX4O-13. If no packets are shown the sender has not sent any weather packets the latest 10 day(s).
| Time | Temp. | Humidity | Pressure | Rain* | Wind** | Luminosity | Snow |
|---|---|---|---|---|---|---|---|
| 1777396864 | 15° C | 75% | 1018.3 hPa | 0 mm | - | 292 W/m² | - |
| 1777396564 | 14.44° C | 75% | 1018.3 hPa | 0 mm | - | 292 W/m² | - |
| 1777396264 | 14.44° C | 75% | 1018.4 hPa | 0 mm | - | 246 W/m² | - |
| 1777395964 | 15° C | 75% | 1018.2 hPa | 0 mm | - | 399 W/m² | - |
| 1777395664 | 15° C | 75% | 1018.3 hPa | 0 mm | - | 399 W/m² | - |
| 1777395364 | 15° C | 75% | 1018.4 hPa | 0 mm | - | 399 W/m² | - |
| 1777395064 | 15° C | 75% | 1018.3 hPa | 0 mm | - | 399 W/m² | - |
| 1777394764 | 15° C | 75% | 1018.4 hPa | 0 mm | - | 385 W/m² | - |
| 1777394464 | 14.44° C | 75% | 1018.4 hPa | 0 mm | - | 445 W/m² | - |
| 1777394164 | 13.89° C | 77% | 1018.6 hPa | 0 mm | - | 322 W/m² | - |
| 1777393864 | 13.89° C | 75% | 1018.9 hPa | 0 mm | - | 223 W/m² | - |
| 1777393564 | 13.33° C | 76% | 1019 hPa | 0 mm | - | 250 W/m² | - |
| 1777393264 | 13.33° C | 76% | 1019 hPa | 0 mm | - | 206 W/m² | - |
| 1777392964 | 13.89° C | 74% | 1019.1 hPa | 0 mm | - | 225 W/m² | - |
| 1777392664 | 13.89° C | 76% | 1019.1 hPa | 0 mm | - | 288 W/m² | - |
| 1777392364 | 13.89° C | 75% | 1019.3 hPa | 0 mm | - | 362 W/m² | - |
| 1777392064 | 13.33° C | 76% | 1019.4 hPa | 0 mm | - | 385 W/m² | - |
| 1777391764 | 13.33° C | 75% | 1019.4 hPa | 0 mm | - | 371 W/m² | - |
| 1777391464 | 12.78° C | 76% | 1019.6 hPa | 0 mm | - | 327 W/m² | - |
| 1777391164 | 12.78° C | 77% | 1019.7 hPa | 0 mm | - | 251 W/m² | - |
| 1777390864 | 12.78° C | 76% | 1019.7 hPa | 0 mm | - | 322 W/m² | - |
| 1777390564 | 12.78° C | 78% | 1019.8 hPa | 0 mm | - | 322 W/m² | - |
| 1777390264 | 12.22° C | 76% | 1019.8 hPa | 0 mm | - | 374 W/m² | - |
| 1777389964 | 12.22° C | 78% | 1019.8 hPa | 0 mm | - | 345 W/m² | - |
| 1777389664 | 12.22° C | 79% | 1019.8 hPa | 0 mm | - | 350 W/m² | - |
* Rain latest hour (hover to see other rain measurements)
** Current wind speed in m/s (hover to see current wind gust speed)